Time;durP1;ratioP1;P1;durP2;ratioP2;P2;SDS_P1;SDS_P2;PMS_P1;PMS_P2;Temp;Humidity;BMP_temperature;BMP_pressure;BME280_temperature;BME280_humidity;BME280_pressure;Samples;Min_cycle;Max_cycle;Signal;HPM_P1;HPM_P2
2021/01/27 00:01:59;;;;;;;6.13;4.53;;;2.00;99.90;;;;;;4887608;29;20242;-86
2021/01/27 00:04:24;;;;;;;6.10;4.83;;;2.00;99.90;;;;;;4909140;29;20330;-87
2021/01/27 00:06:50;;;;;;;7.50;4.77;;;2.00;99.90;;;;;;4917420;29;20239;-87
2021/01/27 00:09:16;;;;;;;6.10;4.03;;;2.00;99.90;;;;;;4906787;29;20228;-86
2021/01/27 00:11:41;;;;;;;4.30;3.80;;;2.00;99.90;;;;;;4906489;29;20199;-85
2021/01/27 00:14:07;;;;;;;5.70;4.23;;;1.90;99.90;;;;;;4904809;29;20683;-83
2021/01/27 00:16:32;;;;;;;8.27;4.90;;;1.90;99.90;;;;;;4903376;29;20670;-87
2021/01/27 00:18:58;;;;;;;5.57;3.90;;;1.90;99.90;;;;;;4888408;29;20495;-87
2021/01/27 00:21:24;;;;;;;4.43;3.73;;;1.90;99.90;;;;;;4893881;29;20200;-87
2021/01/27 00:23:49;;;;;;;14.27;4.80;;;1.80;99.90;;;;;;4908120;29;20220;-86
2021/01/27 00:26:15;;;;;;;6.33;4.03;;;1.80;99.90;;;;;;4910037;29;20212;-87
2021/01/27 00:28:44;;;;;;;5.60;4.60;;;1.80;99.90;;;;;;4890615;29;20205;-85
2021/01/27 00:31:09;;;;;;;4.23;3.30;;;1.80;99.90;;;;;;4892140;29;20187;-86
2021/01/27 00:33:35;;;;;;;7.37;4.53;;;1.80;99.90;;;;;;4910803;29;20823;-85
2021/01/27 00:36:01;;;;;;;6.17;3.47;;;1.80;99.90;;;;;;4883762;29;20205;-84
2021/01/27 00:38:27;;;;;;;6.07;4.53;;;1.70;99.90;;;;;;4909036;29;20199;-86
2021/01/27 00:40:54;;;;;;;5.23;4.07;;;1.60;99.90;;;;;;4928557;29;20220;-86
2021/01/27 00:43:21;;;;;;;5.97;3.83;;;1.60;99.90;;;;;;4921171;29;20472;-89
2021/01/27 00:45:48;;;;;;;5.93;3.50;;;1.50;99.90;;;;;;4929391;29;20491;-87
2021/01/27 00:48:14;;;;;;;7.20;4.87;;;1.50;99.90;;;;;;4918736;29;20442;-86
2021/01/27 00:50:39;;;;;;;10.70;4.40;;;1.50;99.90;;;;;;4913710;29;20456;-88
2021/01/27 00:53:06;;;;;;;6.10;4.30;;;1.40;99.90;;;;;;4917566;29;20611;-84
2021/01/27 00:55:32;;;;;;;6.17;3.67;;;1.30;99.90;;;;;;4900956;29;20334;-87
2021/01/27 00:57:58;;;;;;;7.50;4.40;;;1.30;99.90;;;;;;4932547;29;20804;-87
2021/01/27 01:00:35;;;;;;;5.43;4.27;;;1.20;99.90;;;;;;4914840;29;20465;-87
2021/01/27 01:03:01;;;;;;;5.13;4.63;;;1.20;99.90;;;;;;4918335;29;20448;-86
2021/01/27 01:05:34;;;;;;;5.60;4.13;;;1.10;99.90;;;;;;4900843;29;20461;-88
2021/01/27 01:07:59;;;;;;;6.03;4.23;;;1.00;99.90;;;;;;4898891;29;20485;-87
2021/01/27 01:10:32;;;;;;;9.27;4.27;;;1.00;99.90;;;;;;4918271;29;20507;-85
2021/01/27 01:12:58;;;;;;;5.20;4.70;;;0.90;99.90;;;;;;4916675;29;20435;-88
2021/01/27 01:15:31;;;;;;;7.53;4.40;;;0.90;99.90;;;;;;4916856;29;20440;-88
2021/01/27 01:18:00;;;;;;;8.57;4.70;;;0.90;99.90;;;;;;4914026;29;20443;-88
2021/01/27 01:20:26;;;;;;;10.40;5.00;;;0.90;99.90;;;;;;4901897;29;20634;-84
2021/01/27 01:22:54;;;;;;;10.40;4.90;;;0.90;99.90;;;;;;4900016;29;20438;-85
2021/01/27 01:25:22;;;;;;;6.83;4.53;;;0.90;99.90;;;;;;4916740;29;20473;-85
2021/01/27 01:27:48;;;;;;;6.13;4.10;;;0.80;99.90;;;;;;4929155;29;20684;-84
2021/01/27 01:30:28;;;;;;;5.40;3.90;;;0.90;99.90;;;;;;4920920;29;20439;-87
2021/01/27 01:32:56;;;;;;;6.13;4.20;;;0.80;99.90;;;;;;4922271;29;20425;-86
2021/01/27 01:35:23;;;;;;;6.83;4.20;;;0.90;99.90;;;;;;4913847;29;20475;-87
2021/01/27 01:37:49;;;;;;;7.00;3.80;;;0.80;99.90;;;;;;4899744;29;20441;-85
2021/01/27 01:40:19;;;;;;;7.77;4.87;;;0.90;99.90;;;;;;4896805;29;20439;-85
2021/01/27 01:42:44;;;;;;;6.03;4.60;;;0.80;99.90;;;;;;4917122;29;20438;-84
2021/01/27 01:45:22;;;;;;;7.30;4.60;;;0.90;99.90;;;;;;4927058;29;20435;-86
2021/01/27 01:47:48;;;;;;;5.20;4.20;;;0.80;99.90;;;;;;4918014;29;20220;-86
2021/01/27 01:50:13;;;;;;;12.43;5.07;;;0.80;99.90;;;;;;4916384;29;20434;-85
2021/01/27 01:52:39;;;;;;;7.13;4.23;;;0.80;99.90;;;;;;4898233;29;20683;-85
2021/01/27 01:55:07;;;;;;;7.60;4.43;;;0.80;99.90;;;;;;4917591;29;20215;-87
2021/01/27 01:57:34;;;;;;;6.60;4.40;;;0.80;99.90;;;;;;4915689;29;20215;-87
2021/01/27 02:00:05;;;;;;;5.77;3.97;;;0.70;99.90;;;;;;4920986;29;20439;-85
2021/01/27 02:02:34;;;;;;;9.23;3.90;;;0.70;99.90;;;;;;4912452;29;20485;-87
2021/01/27 02:05:04;;;;;;;6.00;4.10;;;0.70;99.90;;;;;;4914155;29;20480;-86
2021/01/27 02:07:30;;;;;;;5.37;4.07;;;0.80;99.90;;;;;;4916483;29;20470;-86
2021/01/27 02:09:55;;;;;;;4.00;3.40;;;0.90;99.90;;;;;;4895633;29;20935;-86
2021/01/27 02:12:36;;;;;;;6.03;4.17;;;0.90;99.90;;;;;;4916862;29;20836;-86
2021/01/27 02:15:38;;;;;;;6.70;4.47;;;1.00;99.90;;;;;;4910529;29;20714;-88
2021/01/27 02:18:19;;;;;;;6.53;3.90;;;1.10;99.90;;;;;;4901608;29;20471;-87
2021/01/27 02:21:09;;;;;;;6.20;4.20;;;1.10;99.90;;;;;;4912607;29;20452;-85
2021/01/27 02:23:53;;;;;;;7.90;4.87;;;1.30;99.90;;;;;;4912530;29;20475;-86
2021/01/27 02:26:22;;;;;;;5.20;4.30;;;1.40;99.90;;;;;;4915389;29;20492;-84
2021/01/27 02:29:22;;;;;;;4.57;4.00;;;1.40;99.90;;;;;;4914440;29;20435;-85
2021/01/27 02:32:26;;;;;;;10.10;4.90;;;1.40;99.90;;;;;;4885007;29;20804;-88
2021/01/27 02:35:29;;;;;;;6.50;4.20;;;1.50;99.90;;;;;;4916862;29;20582;-86
2021/01/27 02:38:02;;;;;;;5.00;4.17;;;1.50;99.90;;;;;;4910607;29;20463;-86
2021/01/27 02:40:34;;;;;;;4.90;4.10;;;1.50;99.90;;;;;;4915662;29;20452;-84
2021/01/27 02:43:17;;;;;;;8.40;4.70;;;1.50;99.90;;;;;;4897426;29;20472;-86
2021/01/27 02:45:46;;;;;;;8.40;5.10;;;1.50;99.90;;;;;;4910721;29;20460;-85
2021/01/27 02:48:38;;;;;;;6.37;4.23;;;1.60;99.90;;;;;;4927915;29;20458;-87
2021/01/27 02:51:13;;;;;;;9.27;5.13;;;1.60;99.90;;;;;;4911716;29;20460;-83
2021/01/27 02:53:50;;;;;;;5.57;4.10;;;1.60;99.90;;;;;;4899314;29;20560;-84
2021/01/27 02:56:37;;;;;;;5.20;4.30;;;1.60;99.90;;;;;;4915054;29;20875;-87
2021/01/27 02:59:15;;;;;;;11.97;4.37;;;1.60;99.90;;;;;;4898336;29;20443;-86
2021/01/27 03:01:50;;;;;;;7.07;4.60;;;1.70;99.90;;;;;;4911708;29;20453;-84
2021/01/27 03:04:22;;;;;;;5.80;3.73;;;1.60;99.90;;;;;;4910548;29;20854;-87
2021/01/27 03:06:50;;;;;;;8.30;3.60;;;1.60;99.90;;;;;;4913288;29;20840;-85
2021/01/27 03:09:42;;;;;;;8.90;3.60;;;1.50;99.90;;;;;;4911619;29;20483;-87
2021/01/27 03:12:11;;;;;;;5.37;3.57;;;1.60;99.90;;;;;;4909897;29;20448;-85
2021/01/27 03:14:37;;;;;;;4.67;3.63;;;1.60;99.90;;;;;;4911404;29;20480;-86
2021/01/27 03:17:08;;;;;;;6.70;4.37;;;1.50;99.90;;;;;;4913787;29;20459;-85
2021/01/27 03:19:44;;;;;;;4.60;3.40;;;1.50;99.90;;;;;;4915104;29;20197;-86
2021/01/27 03:22:20;;;;;;;5.57;3.80;;;1.50;99.90;;;;;;4908081;29;20439;-84
2021/01/27 03:25:09;;;;;;;9.43;3.90;;;1.50;99.90;;;;;;4897894;29;20470;-85
2021/01/27 03:27:41;;;;;;;5.73;3.83;;;1.50;99.90;;;;;;4913832;29;20551;-83
2021/01/27 03:30:12;;;;;;;4.80;3.43;;;1.50;99.90;;;;;;4915184;29;20439;-86
2021/01/27 03:32:56;;;;;;;5.23;3.63;;;1.50;99.90;;;;;;4898058;29;20472;-86
2021/01/27 03:35:28;;;;;;;6.60;3.77;;;1.50;99.90;;;;;;4910110;29;20440;-87
2021/01/27 03:38:19;;;;;;;4.50;3.90;;;1.50;99.90;;;;;;4912990;29;20448;-85
2021/01/27 03:40:49;;;;;;;7.07;4.20;;;1.50;99.90;;;;;;4911295;29;20445;-84
2021/01/27 03:43:27;;;;;;;5.87;3.33;;;1.50;99.90;;;;;;4894032;29;20456;-84
2021/01/27 03:46:06;;;;;;;6.03;4.33;;;1.50;99.90;;;;;;4913532;29;20498;-87
2021/01/27 03:48:43;;;;;;;4.00;3.33;;;1.50;99.90;;;;;;4925629;29;20455;-85
2021/01/27 03:51:11;;;;;;;5.07;3.33;;;1.60;99.90;;;;;;4912284;29;20439;-87
2021/01/27 03:53:37;;;;;;;7.50;3.63;;;1.60;99.90;;;;;;4911739;29;20467;-86
2021/01/27 03:56:17;;;;;;;4.37;3.57;;;1.70;99.90;;;;;;4910746;29;20824;-86
2021/01/27 03:58:46;;;;;;;4.23;3.40;;;1.80;99.90;;;;;;4893836;29;20680;-86
2021/01/27 04:01:17;;;;;;;4.60;3.77;;;1.80;99.90;;;;;;4884076;29;20443;-85
2021/01/27 04:03:45;;;;;;;6.37;4.17;;;1.80;99.90;;;;;;4907750;29;20459;-85
2021/01/27 04:06:11;;;;;;;4.40;3.13;;;1.90;99.90;;;;;;4908540;29;20760;-83
2021/01/27 04:08:37;;;;;;;6.10;3.90;;;1.80;99.90;;;;;;4924950;29;20450;-86
2021/01/27 04:11:05;;;;;;;4.80;4.20;;;1.80;99.90;;;;;;4912277;29;20483;-86
2021/01/27 04:13:31;;;;;;;4.07;3.63;;;1.80;99.90;;;;;;4910279;29;20471;-86
2021/01/27 04:15:57;;;;;;;6.77;3.50;;;1.80;99.90;;;;;;4914069;29;20536;-88
2021/01/27 04:18:24;;;;;;;4.50;3.93;;;1.80;99.90;;;;;;4914265;29;20470;-87
2021/01/27 04:20:50;;;;;;;5.60;3.50;;;1.80;99.90;;;;;;4922386;29;20447;-84
2021/01/27 04:23:16;;;;;;;5.97;4.40;;;1.80;99.90;;;;;;4917766;29;20475;-87
2021/01/27 04:25:42;;;;;;;4.30;3.90;;;1.80;99.90;;;;;;4926564;29;20187;-84
2021/01/27 04:28:07;;;;;;;4.33;3.60;;;1.90;99.90;;;;;;4914167;29;20254;-84
2021/01/27 04:30:35;;;;;;;4.17;3.77;;;1.90;99.90;;;;;;4912508;29;20455;-85
2021/01/27 04:33:04;;;;;;;8.00;3.83;;;1.90;99.90;;;;;;4914355;29;20195;-86
2021/01/27 04:35:31;;;;;;;4.07;3.30;;;1.90;99.90;;;;;;4877314;29;20826;-85
2021/01/27 04:37:56;;;;;;;4.60;3.83;;;1.90;99.90;;;;;;4916116;29;20799;-84
2021/01/27 04:40:30;;;;;;;4.70;3.80;;;1.90;99.90;;;;;;4912203;29;20446;-86
2021/01/27 04:42:56;;;;;;;3.70;3.10;;;1.90;99.90;;;;;;4912121;29;20179;-83
2021/01/27 04:45:22;;;;;;;6.00;3.90;;;1.90;99.90;;;;;;4910301;29;20467;-84
2021/01/27 04:47:57;;;;;;;5.40;3.70;;;1.90;99.90;;;;;;4896755;29;21012;-84
2021/01/27 04:50:29;;;;;;;4.47;3.50;;;1.90;99.90;;;;;;4911156;29;20434;-85
2021/01/27 04:53:13;;;;;;;4.20;3.27;;;1.90;99.90;;;;;;4926887;29;20451;-87
2021/01/27 04:55:59;;;;;;;5.80;3.93;;;1.90;99.90;;;;;;4897456;29;20442;-87
2021/01/27 04:58:50;;;;;;;5.50;3.23;;;2.00;99.90;;;;;;4895635;29;20443;-87
2021/01/27 05:01:36;;;;;;;3.30;3.00;;;2.00;99.90;;;;;;4915228;29;20448;-87
2021/01/27 05:04:39;;;;;;;7.27;3.60;;;2.00;99.90;;;;;;4919051;29;20528;-86
2021/01/27 05:07:11;;;;;;;4.73;3.40;;;1.90;99.90;;;;;;4897729;29;20500;-85
2021/01/27 05:09:45;;;;;;;6.27;3.80;;;1.90;99.90;;;;;;4895289;29;20449;-85
2021/01/27 05:12:12;;;;;;;4.43;3.13;;;2.00;99.90;;;;;;4916780;29;20464;-85
2021/01/27 05:14:39;;;;;;;3.47;2.93;;;2.00;99.90;;;;;;4918993;29;20449;-85
2021/01/27 05:17:09;;;;;;;4.23;3.53;;;2.00;99.90;;;;;;4917917;29;20450;-86
2021/01/27 05:19:36;;;;;;;3.67;3.37;;;1.90;99.90;;;;;;4912801;29;21291;-86
2021/01/27 05:22:04;;;;;;;4.33;3.90;;;2.00;99.90;;;;;;4898967;29;20530;-86
2021/01/27 05:24:29;;;;;;;3.87;2.80;;;2.00;99.90;;;;;;4897348;29;20463;-86
2021/01/27 05:27:04;;;;;;;4.93;4.20;;;2.00;99.90;;;;;;4882040;29;20492;-87
2021/01/27 05:29:45;;;;;;;4.13;3.53;;;2.00;99.90;;;;;;4911624;29;20438;-86
2021/01/27 05:32:12;;;;;;;4.67;3.60;;;2.10;99.90;;;;;;4899929;29;20435;-85
2021/01/27 05:34:40;;;;;;;4.70;3.33;;;2.10;99.90;;;;;;4912368;29;20870;-86
2021/01/27 05:37:18;;;;;;;7.03;3.60;;;2.20;99.90;;;;;;4914607;29;20532;-85
2021/01/27 05:39:46;;;;;;;4.50;3.90;;;2.20;99.90;;;;;;4914041;29;20517;-86
2021/01/27 05:42:29;;;;;;;5.50;4.10;;;2.20;99.90;;;;;;4900641;29;20458;-85
2021/01/27 05:45:17;;;;;;;7.83;4.77;;;2.20;99.90;;;;;;4913376;29;20480;-86
2021/01/27 05:47:45;;;;;;;5.87;4.40;;;2.30;99.90;;;;;;4911752;29;20471;-86
2021/01/27 05:50:21;;;;;;;8.13;4.20;;;2.30;99.90;;;;;;4911530;29;20532;-86
2021/01/27 05:52:47;;;;;;;7.93;4.80;;;2.30;99.90;;;;;;4915147;29;20983;-84
2021/01/27 05:55:13;;;;;;;7.03;4.77;;;2.40;99.90;;;;;;4917569;29;20440;-85
2021/01/27 05:57:41;;;;;;;5.53;4.27;;;2.30;99.90;;;;;;4901119;29;20442;-87
2021/01/27 06:00:10;;;;;;;7.73;4.20;;;2.40;99.90;;;;;;4914587;29;20515;-88
2021/01/27 06:02:43;;;;;;;6.00;4.20;;;2.40;99.90;;;;;;4913563;29;20451;-86
2021/01/27 06:05:15;;;;;;;5.50;4.03;;;2.50;99.90;;;;;;4891651;29;20544;-86
2021/01/27 06:07:42;;;;;;;7.90;3.90;;;2.40;99.90;;;;;;4917612;29;20472;-87
2021/01/27 06:10:26;;;;;;;7.40;3.73;;;2.30;99.90;;;;;;4911961;29;20945;-85
2021/01/27 06:12:52;;;;;;;8.17;4.10;;;2.20;99.90;;;;;;4927612;29;20440;-86
2021/01/27 06:15:30;;;;;;;4.10;3.57;;;2.20;99.90;;;;;;4914954;29;20895;-87
2021/01/27 06:17:57;;;;;;;5.07;4.23;;;2.20;99.90;;;;;;4912290;29;20551;-88
2021/01/27 06:20:22;;;;;;;4.53;3.87;;;2.20;99.90;;;;;;4914218;29;20440;-88
2021/01/27 06:23:06;;;;;;;6.30;3.70;;;2.20;99.90;;;;;;4926260;29;20455;-87
2021/01/27 06:25:59;;;;;;;6.13;3.27;;;2.10;99.90;;;;;;4915013;29;20203;-85
2021/01/27 06:28:59;;;;;;;9.07;4.13;;;2.10;99.90;;;;;;4915341;29;20457;-87
2021/01/27 06:31:48;;;;;;;6.90;4.40;;;2.10;99.90;;;;;;4911620;29;20440;-84
2021/01/27 06:34:23;;;;;;;5.57;4.27;;;2.10;99.90;;;;;;4915331;29;20466;-86
2021/01/27 06:37:36;;;;;;;4.53;3.97;;;2.10;99.90;;;;;;4926353;29;20455;-86
2021/01/27 06:40:29;;;;;;;8.00;4.37;;;2.10;99.90;;;;;;4906374;29;20460;-88
2021/01/27 06:43:29;;;;;;;6.60;4.70;;;2.10;99.90;;;;;;4908866;29;20877;-86
2021/01/27 06:46:19;;;;;;;6.57;5.17;;;2.20;99.90;;;;;;4911935;29;20947;-86
2021/01/27 06:48:44;;;;;;;6.70;4.77;;;2.20;99.90;;;;;;4913128;29;20464;-88
2021/01/27 06:51:15;;;;;;;8.93;5.20;;;2.30;99.90;;;;;;4915189;29;20912;-86
2021/01/27 06:54:03;;;;;;;11.07;4.23;;;2.30;99.90;;;;;;4913695;29;20211;-86
2021/01/27 06:56:37;;;;;;;11.93;5.30;;;2.30;99.90;;;;;;4914545;29;20468;-87
2021/01/27 06:59:09;;;;;;;11.77;5.57;;;2.40;99.90;;;;;;4912518;29;20503;-86
2021/01/27 07:02:05;;;;;;;7.70;4.00;;;2.40;99.90;;;;;;4913761;29;20461;-85
2021/01/27 07:04:45;;;;;;;11.83;5.50;;;2.40;99.90;;;;;;4917765;29;20575;-88
2021/01/27 07:07:30;;;;;;;7.73;4.70;;;2.40;99.90;;;;;;4891100;29;20567;-85
2021/01/27 07:10:14;;;;;;;8.77;5.60;;;2.50;99.90;;;;;;4911233;29;20457;-87
2021/01/27 07:12:42;;;;;;;8.10;5.60;;;2.40;99.90;;;;;;4899096;29;20437;-86
2021/01/27 07:15:29;;;;;;;7.23;4.57;;;2.40;99.90;;;;;;4912200;29;20457;-87
2021/01/27 07:18:10;;;;;;;8.47;5.40;;;2.30;99.90;;;;;;4914912;29;20439;-87
2021/01/27 07:20:47;;;;;;;5.90;4.80;;;2.40;99.90;;;;;;4924197;29;20438;-85
2021/01/27 07:23:43;;;;;;;6.90;4.77;;;2.40;99.90;;;;;;4909041;29;20503;-87
2021/01/27 07:26:20;;;;;;;6.10;4.60;;;2.40;99.90;;;;;;4913805;29;20516;-85
2021/01/27 07:28:58;;;;;;;6.70;4.10;;;2.40;99.90;;;;;;4893811;29;20471;-86
2021/01/27 07:31:51;;;;;;;6.40;4.70;;;2.40;99.90;;;;;;4923625;29;20982;-86
2021/01/27 07:34:22;;;;;;;6.60;4.90;;;2.40;99.90;;;;;;4922945;29;20452;-85
2021/01/27 07:37:19;;;;;;;8.30;4.40;;;2.40;99.90;;;;;;4909780;29;20445;-85
2021/01/27 07:39:55;;;;;;;5.40;4.70;;;2.30;99.90;;;;;;4908941;29;20431;-88
2021/01/27 07:42:26;;;;;;;6.70;4.60;;;2.30;99.90;;;;;;4923563;29;20896;-84
2021/01/27 07:44:59;;;;;;;5.33;4.23;;;2.40;99.90;;;;;;4909699;29;20518;-89
2021/01/27 07:48:07;;;;;;;5.60;4.90;;;2.40;99.90;;;;;;4894269;29;20478;-84
2021/01/27 07:50:39;;;;;;;7.03;4.87;;;2.40;99.90;;;;;;4925049;29;20445;-85
2021/01/27 07:53:14;;;;;;;7.93;4.90;;;2.50;99.90;;;;;;4909395;29;20452;-83
2021/01/27 07:56:14;;;;;;;6.10;4.57;;;2.50;99.90;;;;;;4893707;29;20433;-83
2021/01/27 07:58:48;;;;;;;7.03;5.30;;;2.50;99.90;;;;;;4912219;29;20494;-86
2021/01/27 08:01:20;;;;;;;6.60;3.90;;;2.40;99.90;;;;;;4923306;29;21006;-84
2021/01/27 08:04:09;;;;;;;6.93;4.33;;;2.40;99.90;;;;;;4923710;29;20487;-85
2021/01/27 08:06:56;;;;;;;5.37;4.70;;;2.40;99.90;;;;;;4909630;29;20566;-84
2021/01/27 08:09:42;;;;;;;5.40;4.40;;;2.40;99.90;;;;;;4922526;29;20602;-86
2021/01/27 08:12:26;;;;;;;7.67;4.40;;;2.40;99.90;;;;;;4891511;29;21061;-86
2021/01/27 08:15:17;;;;;;;5.07;4.40;;;2.30;99.90;;;;;;4910517;29;21552;-86
2021/01/27 08:18:04;;;;;;;5.17;4.10;;;2.30;99.90;;;;;;4908127;29;20433;-84
2021/01/27 08:20:36;;;;;;;4.30;3.10;;;2.20;99.90;;;;;;4921873;29;20463;-87
2021/01/27 08:23:06;;;;;;;7.60;4.70;;;2.10;99.90;;;;;;4911479;29;20989;-84
2021/01/27 08:25:56;;;;;;;8.43;4.90;;;2.00;99.90;;;;;;4907951;29;20444;-86
2021/01/27 08:28:24;;;;;;;11.07;3.60;;;2.00;99.90;;;;;;4906738;29;20538;-86
2021/01/27 08:31:17;;;;;;;8.47;3.30;;;2.00;99.90;;;;;;4904625;29;20427;-85
2021/01/27 08:33:46;;;;;;;7.30;4.43;;;2.00;99.90;;;;;;4906413;29;20456;-88
2021/01/27 08:36:13;;;;;;;8.10;3.53;;;1.90;99.90;;;;;;4921618;29;20535;-84
2021/01/27 08:38:44;;;;;;;4.83;3.23;;;1.80;99.90;;;;;;4909471;29;20444;-87
2021/01/27 08:41:41;;;;;;;9.53;4.60;;;1.70;99.90;;;;;;4890798;29;20437;-83
2021/01/27 08:44:13;;;;;;;3.60;3.00;;;1.70;99.90;;;;;;4907242;29;20507;-84
2021/01/27 08:46:57;;;;;;;8.27;4.43;;;1.60;99.90;;;;;;4920817;29;20467;-84
2021/01/27 08:49:44;;;;;;;5.47;3.90;;;1.40;99.90;;;;;;4891939;29;20563;-83
2021/01/27 08:52:10;;;;;;;5.80;4.20;;;1.30;99.90;;;;;;4906293;29;20519;-82
2021/01/27 08:54:41;;;;;;;7.10;4.90;;;1.30;99.90;;;;;;4909133;29;20529;-86
2021/01/27 08:57:28;;;;;;;5.43;4.60;;;1.30;99.90;;;;;;4908312;29;20193;-83
2021/01/27 09:00:01;;;;;;;8.53;4.70;;;1.30;99.90;;;;;;4910101;29;20427;-86
2021/01/27 09:02:45;;;;;;;11.87;6.63;;;1.30;99.90;;;;;;4890763;29;20417;-82
2021/01/27 09:05:26;;;;;;;6.47;5.00;;;1.40;99.90;;;;;;4910117;29;20855;-86
2021/01/27 09:08:02;;;;;;;8.30;5.37;;;1.40;99.90;;;;;;4927207;29;20704;-84
2021/01/27 09:10:39;;;;;;;5.80;4.80;;;1.40;99.90;;;;;;4924090;29;20497;-87
2021/01/27 09:13:38;;;;;;;7.80;5.27;;;1.40;99.90;;;;;;4892107;29;20532;-84
2021/01/27 09:16:20;;;;;;;7.17;5.13;;;1.40;99.90;;;;;;4895693;29;20434;-87
2021/01/27 09:19:23;;;;;;;9.33;5.70;;;1.30;99.90;;;;;;4909615;29;20707;-86
2021/01/27 09:22:12;;;;;;;13.23;5.57;;;1.40;99.90;;;;;;4894310;29;20438;-86
2021/01/27 09:25:21;;;;;;;7.00;4.80;;;1.40;99.90;;;;;;4928381;29;20449;-84
2021/01/27 09:31:15;;;;;;;12.63;7.27;;;1.40;99.90;;;;;;4910804;29;20434;-86
2021/01/27 09:33:50;;;;;;;7.60;5.93;;;1.40;99.90;;;;;;4886773;29;20861;-81
2021/01/27 09:36:18;;;;;;;8.17;5.73;;;1.40;99.90;;;;;;4886698;29;20466;-82
2021/01/27 09:38:50;;;;;;;9.13;5.77;;;1.40;99.90;;;;;;4911630;29;20456;-82
2021/01/27 09:41:24;;;;;;;6.40;5.00;;;1.50;99.90;;;;;;4897467;29;20421;-83
2021/01/27 09:43:50;;;;;;;7.90;6.07;;;1.50;99.90;;;;;;4897069;29;21004;-85
2021/01/27 09:46:40;;;;;;;7.63;6.03;;;1.60;99.90;;;;;;4894899;29;20474;-82
2021/01/27 09:49:24;;;;;;;9.00;6.07;;;1.60;99.90;;;;;;4928345;29;20768;-83
2021/01/27 09:52:05;;;;;;;10.00;6.70;;;1.60;99.90;;;;;;4873372;29;20462;-84
2021/01/27 09:54:33;;;;;;;11.33;6.70;;;1.60;99.90;;;;;;4875004;29;20457;-84
2021/01/27 09:57:19;;;;;;;;;;;;;;;;;;;;;
2021/01/27 09:59:53;;;;;;;11.57;6.60;;;1.80;99.90;;;;;;4897363;29;20809;-85
2021/01/27 10:02:40;;;;;;;9.17;6.20;;;1.80;99.90;;;;;;4892581;29;20441;-86
2021/01/27 10:05:32;;;;;;;10.67;6.77;;;1.80;99.90;;;;;;4908007;29;20801;-86
2021/01/27 10:08:07;;;;;;;7.83;5.57;;;1.90;99.90;;;;;;4910795;29;20484;-88
2021/01/27 10:11:07;;;;;;;8.47;6.80;;;2.00;99.90;;;;;;4894133;29;20484;-88
2021/01/27 10:13:58;;;;;;;8.17;6.17;;;2.10;99.90;;;;;;4925657;29;20860;-88
2021/01/27 10:16:29;;;;;;;11.50;6.77;;;2.10;99.90;;;;;;4922817;29;20449;-86
2021/01/27 10:19:35;;;;;;;12.80;6.10;;;2.10;99.90;;;;;;4922298;29;20504;-87
2021/01/27 10:26:10;;;;;;;11.17;5.50;;;2.20;99.90;;;;;;4893202;29;20450;-87
2021/01/27 10:28:51;;;;;;;9.10;5.30;;;2.10;99.90;;;;;;4905702;29;20453;-87
2021/01/27 10:34:45;;;;;;;4.70;4.00;;;2.30;99.90;;;;;;4911621;29;20465;-90
2021/01/27 10:37:56;;;;;;;7.47;4.67;;;2.40;99.90;;;;;;4897126;29;20450;-86
2021/01/27 10:40:24;;;;;;;9.00;4.03;;;2.30;99.90;;;;;;4909502;29;20484;-87
2021/01/27 10:42:59;;;;;;;7.63;4.47;;;2.30;99.90;;;;;;4924354;29;20489;-85
2021/01/27 10:45:43;;;;;;;5.90;4.20;;;2.30;99.90;;;;;;4895327;29;20452;-86
2021/01/27 10:48:15;;;;;;;10.20;3.70;;;2.30;99.90;;;;;;4895028;29;20474;-83
2021/01/27 10:50:51;;;;;;;7.60;4.20;;;2.30;99.90;;;;;;4890470;29;20497;-85
2021/01/27 10:53:19;;;;;;;8.40;3.50;;;2.40;99.90;;;;;;4886362;29;20466;-86
2021/01/27 10:55:57;;;;;;;4.70;3.93;;;2.60;99.90;;;;;;4924039;29;20440;-84
2021/01/27 10:58:32;;;;;;;13.77;5.47;;;2.60;99.90;;;;;;4909398;29;20455;-83
2021/01/27 11:00:57;;;;;;;6.80;4.67;;;2.70;99.90;;;;;;4896303;29;20433;-84
2021/01/27 11:04:08;;;;;;;5.10;4.60;;;2.60;99.90;;;;;;4893838;29;20698;-84
2021/01/27 11:06:59;;;;;;;8.20;4.93;;;2.80;99.90;;;;;;4882860;29;20256;-86
2021/01/27 11:09:59;;;;;;;8.43;6.30;;;2.70;99.90;;;;;;4882289;29;20981;-86
2021/01/27 11:12:36;;;;;;;9.40;5.87;;;2.80;99.90;;;;;;4843310;29;20481;-86
2021/01/27 11:15:11;;;;;;;9.13;6.20;;;2.90;99.90;;;;;;4895017;29;20460;-86
2021/01/27 11:18:51;;;;;;;9.13;6.03;;;3.00;99.90;;;;;;4885892;29;20516;-88
2021/01/27 11:21:27;;;;;;;8.57;5.37;;;3.10;99.90;;;;;;4809489;29;21033;-85
2021/01/27 11:24:09;;;;;;;13.00;7.50;;;3.20;99.90;;;;;;4869580;29;20472;-85
2021/01/27 11:27:12;;;;;;;18.80;6.73;;;3.40;99.90;;;;;;4874252;29;20602;-87
2021/01/27 11:30:03;;;;;;;6.83;6.17;;;3.60;99.90;;;;;;4891374;29;20533;-85
2021/01/27 11:32:29;;;;;;;12.60;5.90;;;3.70;99.90;;;;;;4889506;29;20515;-85
2021/01/27 11:34:54;;;;;;;10.87;6.60;;;3.60;99.90;;;;;;4893123;29;20498;-86
2021/01/27 11:37:23;;;;;;;10.70;6.07;;;3.60;99.90;;;;;;4895233;29;20197;-88
2021/01/27 11:39:51;;;;;;;10.40;4.10;;;3.60;99.90;;;;;;4908460;29;20252;-88
2021/01/27 11:42:25;;;;;;;8.00;4.93;;;3.60;99.90;;;;;;4893097;29;20428;-88
2021/01/27 11:44:50;;;;;;;9.57;3.97;;;3.50;99.90;;;;;;4891474;29;20499;-87
2021/01/27 11:47:16;;;;;;;6.57;3.80;;;3.40;99.90;;;;;;4894450;29;20853;-86
2021/01/27 11:49:45;;;;;;;4.40;3.90;;;3.40;99.90;;;;;;4906996;29;20453;-85
2021/01/27 11:52:12;;;;;;;8.93;4.33;;;3.30;99.90;;;;;;4892863;29;20459;-86
2021/01/27 11:54:39;;;;;;;4.10;3.70;;;3.40;99.90;;;;;;4909258;29;20487;-86
2021/01/27 11:57:06;;;;;;;6.77;4.10;;;3.40;99.90;;;;;;4895219;29;20882;-85
2021/01/27 11:59:32;;;;;;;4.77;3.87;;;3.40;99.90;;;;;;4911648;29;20440;-85
2021/01/27 12:01:59;;;;;;;3.90;3.60;;;3.40;99.90;;;;;;4910546;29;20837;-85
2021/01/27 12:04:25;;;;;;;5.80;3.10;;;3.40;99.90;;;;;;4908724;29;20530;-85
2021/01/27 12:06:50;;;;;;;5.43;3.53;;;3.30;99.90;;;;;;4892869;29;20559;-86
2021/01/27 12:09:16;;;;;;;4.17;3.30;;;3.30;99.90;;;;;;4906833;29;20204;-87
2021/01/27 12:11:45;;;;;;;6.03;4.17;;;3.30;99.90;;;;;;4893092;29;20333;-87
2021/01/27 12:14:12;;;;;;;7.83;3.93;;;3.30;99.90;;;;;;4894068;29;20775;-89
2021/01/27 12:16:42;;;;;;;5.00;4.03;;;3.40;99.90;;;;;;4899818;29;20429;-87
2021/01/27 12:19:28;;;;;;;3.87;3.17;;;3.30;99.90;;;;;;4901433;29;20452;-86
2021/01/27 12:21:58;;;;;;;7.13;3.20;;;3.40;99.90;;;;;;4918880;29;20913;-87
2021/01/27 12:24:25;;;;;;;5.87;4.10;;;3.30;99.90;;;;;;4911925;29;20465;-87
2021/01/27 12:26:52;;;;;;;5.30;4.30;;;3.50;99.90;;;;;;4868408;29;20472;-90
2021/01/27 12:29:18;;;;;;;4.43;3.90;;;3.70;99.90;;;;;;4894759;29;20443;-89
2021/01/27 12:31:44;;;;;;;4.10;3.73;;;3.70;99.90;;;;;;4891002;29;20437;-88
2021/01/27 12:34:11;;;;;;;4.13;3.57;;;3.70;99.90;;;;;;4905402;29;21069;-86
2021/01/27 12:36:37;;;;;;;4.70;3.60;;;3.80;99.90;;;;;;4909059;29;20440;-85
2021/01/27 12:39:07;;;;;;;3.23;2.93;;;3.60;99.90;;;;;;4898467;29;20535;-84
2021/01/27 12:41:34;;;;;;;4.30;2.53;;;3.40;99.90;;;;;;4904353;29;20500;-87
2021/01/27 12:43:59;;;;;;;3.10;2.60;;;3.40;99.90;;;;;;4916258;29;20454;-86
2021/01/27 12:46:25;;;;;;;2.40;2.13;;;3.40;99.90;;;;;;4899096;29;20485;-85
2021/01/27 12:48:51;;;;;;;2.60;2.20;;;3.40;99.90;;;;;;4910223;29;20698;-85
2021/01/27 12:51:17;;;;;;;3.13;2.20;;;3.40;99.90;;;;;;4911275;29;20212;-89
2021/01/27 12:53:46;;;;;;;2.73;2.40;;;3.50;99.90;;;;;;4922977;29;20217;-86
2021/01/27 12:56:12;;;;;;;2.07;1.70;;;3.60;99.90;;;;;;4896534;29;20433;-86
2021/01/27 12:58:38;;;;;;;2.33;2.13;;;3.50;99.90;;;;;;4928131;29;20466;-84
2021/01/27 13:01:04;;;;;;;2.43;2.10;;;3.40;99.90;;;;;;4908211;29;20471;-84
2021/01/27 13:03:30;;;;;;;1.90;1.80;;;3.40;99.90;;;;;;4909429;29;20460;-88
2021/01/27 13:06:01;;;;;;;3.80;2.07;;;3.30;99.90;;;;;;4895417;29;20424;-86
2021/01/27 13:08:27;;;;;;;2.70;2.50;;;3.20;99.90;;;;;;4881909;29;20707;-87
2021/01/27 13:10:52;;;;;;;2.70;2.47;;;3.10;99.90;;;;;;4916039;29;20496;-87
2021/01/27 13:13:18;;;;;;;2.80;2.20;;;3.10;99.90;;;;;;4911806;29;20217;-84
2021/01/27 13:15:44;;;;;;;2.23;2.03;;;3.00;99.90;;;;;;4891322;29;20189;-85
2021/01/27 13:18:10;;;;;;;5.40;2.13;;;3.00;99.90;;;;;;4912866;29;20204;-86
2021/01/27 13:20:36;;;;;;;3.50;2.10;;;3.00;99.90;;;;;;4891767;29;20200;-84
2021/01/27 13:23:03;;;;;;;2.47;2.10;;;3.00;99.90;;;;;;4909485;29;20557;-87
2021/01/27 13:25:29;;;;;;;2.57;2.37;;;3.10;99.90;;;;;;4911853;29;21037;-86
2021/01/27 13:27:55;;;;;;;2.13;1.73;;;3.10;99.90;;;;;;4898205;29;20479;-84
2021/01/27 13:30:22;;;;;;;3.80;2.07;;;3.10;99.90;;;;;;4910134;29;20935;-84
2021/01/27 13:32:49;;;;;;;1.97;1.87;;;3.10;99.90;;;;;;4891175;29;20449;-84
2021/01/27 13:35:18;;;;;;;2.03;1.83;;;3.10;99.90;;;;;;4910014;29;20500;-84
2021/01/27 13:37:44;;;;;;;1.60;1.50;;;3.10;99.90;;;;;;4908612;29;20924;-86
2021/01/27 13:40:14;;;;;;;1.60;1.50;;;3.10;99.90;;;;;;4896890;29;20467;-85
2021/01/27 13:42:40;;;;;;;2.33;1.90;;;3.10;99.90;;;;;;4902521;29;20453;-86
2021/01/27 13:45:08;;;;;;;1.60;1.50;;;3.20;99.90;;;;;;4892732;29;20461;-87
2021/01/27 13:47:39;;;;;;;2.23;1.67;;;3.20;99.90;;;;;;4906535;29;20472;-85
2021/01/27 13:50:06;;;;;;;3.40;1.83;;;3.20;99.90;;;;;;4907841;29;20540;-88